Time;durP1;ratioP1;P1;durP2;ratioP2;P2;SDS_P1;SDS_P2;PMS_P1;PMS_P2;Temp;Humidity;BMP_temperature;BMP_pressure;BME280_temperature;BME280_humidity;BME280_pressure;Samples;Min_cycle;Max_cycle;Signal;HPM_P1;HPM_P2
2023/08/24 04:30:32;;;;;;;0.00;0.00;;;22.60;78.50;;;;;;5896070;23;20062;-80
2023/08/24 04:32:59;;;;;;;0.00;0.00;;;22.60;78.50;;;;;;4996653;28;20054;-79
2023/08/24 04:35:26;;;;;;;0.00;0.00;;;22.60;78.50;;;;;;4999293;28;20022;-79
2023/08/24 04:37:52;;;;;;;0.03;0.00;;;22.60;78.50;;;;;;5000981;28;20045;-80
2023/08/24 04:40:17;;;;;;;0.00;0.00;;;22.70;78.50;;;;;;5000983;28;20035;-80
2023/08/24 04:42:43;;;;;;;0.00;0.00;;;22.60;78.50;;;;;;5000868;28;20512;-80
2023/08/24 04:45:09;;;;;;;0.00;0.00;;;22.60;78.60;;;;;;5000934;28;20113;-79
2023/08/24 04:47:35;;;;;;;0.00;0.00;;;22.60;78.80;;;;;;5000641;28;20109;-80
2023/08/24 04:50:00;;;;;;;0.00;0.00;;;22.50;78.80;;;;;;5000747;28;20065;-79
2023/08/24 04:52:26;;;;;;;0.00;0.00;;;22.50;78.80;;;;;;5000745;28;20058;-79
2023/08/24 04:54:51;;;;;;;0.00;0.00;;;22.40;79.00;;;;;;4999388;28;20026;-79
2023/08/24 04:57:18;;;;;;;0.00;0.00;;;22.40;79.10;;;;;;5000598;28;20057;-79
2023/08/24 04:59:44;;;;;;;0.00;0.00;;;22.50;79.20;;;;;;4999404;28;20034;-79
2023/08/24 05:02:09;;;;;;;0.00;0.00;;;22.40;79.30;;;;;;4998931;28;20033;-79
2023/08/24 05:04:35;;;;;;;0.00;0.00;;;22.50;79.40;;;;;;5000318;28;20062;-79
2023/08/24 05:07:00;;;;;;;0.00;0.00;;;22.30;79.90;;;;;;5000430;28;20030;-79
2023/08/24 05:09:26;;;;;;;0.08;0.00;;;22.30;80.40;;;;;;5015161;28;20031;-79
2023/08/24 05:11:52;;;;;;;0.00;0.00;;;22.30;80.20;;;;;;5000479;28;20031;-79
2023/08/24 05:14:17;;;;;;;0.00;0.00;;;22.40;80.10;;;;;;5000548;28;20031;-79
2023/08/24 05:16:43;;;;;;;0.00;0.00;;;22.40;79.90;;;;;;5000271;28;20090;-80
2023/08/24 05:19:08;;;;;;;0.00;0.00;;;22.40;79.80;;;;;;5000466;28;20022;-79
2023/08/24 05:21:34;;;;;;;0.00;0.00;;;22.50;79.70;;;;;;5000263;28;20492;-80
2023/08/24 05:24:00;;;;;;;0.00;0.00;;;22.50;79.60;;;;;;5000127;28;20101;-80
2023/08/24 05:26:25;;;;;;;0.00;0.00;;;22.50;79.60;;;;;;5000163;28;20026;-80
2023/08/24 05:28:52;;;;;;;0.00;0.00;;;22.50;79.50;;;;;;4998581;28;20022;-80
2023/08/24 05:31:18;;;;;;;0.00;0.00;;;22.60;79.50;;;;;;4981163;28;20386;-80
2023/08/24 05:33:44;;;;;;;0.10;0.10;;;22.60;79.40;;;;;;4992271;28;20037;-79
2023/08/24 05:36:10;;;;;;;0.00;0.00;;;22.60;79.20;;;;;;4999645;28;20023;-79
2023/08/24 05:38:35;;;;;;;0.00;0.00;;;22.60;79.10;;;;;;4996900;28;20037;-80
2023/08/24 05:41:01;;;;;;;0.00;0.00;;;22.70;79.10;;;;;;4998414;28;20034;-79
2023/08/24 05:43:26;;;;;;;0.00;0.00;;;22.70;79.10;;;;;;5000138;28;20057;-79
2023/08/24 05:45:52;;;;;;;0.00;0.00;;;22.60;79.20;;;;;;4999622;28;20026;-79
2023/08/24 05:48:18;;;;;;;0.00;0.00;;;22.60;79.20;;;;;;4999785;28;20030;-79
2023/08/24 05:50:44;;;;;;;0.00;0.00;;;22.60;79.30;;;;;;4999638;28;20436;-79
2023/08/24 05:53:10;;;;;;;0.00;0.00;;;22.60;79.30;;;;;;4999663;28;20109;-78
2023/08/24 05:55:36;;;;;;;0.00;0.00;;;22.70;79.30;;;;;;4999670;28;20046;-79
2023/08/24 05:58:02;;;;;;;0.00;0.00;;;22.70;79.20;;;;;;4998710;28;20026;-78
2023/08/24 06:00:29;;;;;;;0.00;0.00;;;22.80;79.10;;;;;;4998016;28;20564;-77
2023/08/24 06:02:55;;;;;;;0.00;0.00;;;22.80;79.20;;;;;;4997866;28;20038;-78
2023/08/24 06:05:20;;;;;;;0.00;0.00;;;22.80;79.10;;;;;;4998261;28;20022;-77
2023/08/24 06:07:46;;;;;;;0.00;0.00;;;22.90;79.00;;;;;;4998927;28;20213;-78
2023/08/24 06:10:12;;;;;;;0.00;0.00;;;22.90;78.90;;;;;;4997515;28;20026;-76
2023/08/24 06:12:37;;;;;;;0.00;0.00;;;23.00;79.00;;;;;;4992736;28;20492;-77
2023/08/24 06:15:04;;;;;;;0.00;0.00;;;22.90;79.10;;;;;;4979935;28;20113;-77
2023/08/24 06:17:30;;;;;;;0.00;0.00;;;22.90;79.10;;;;;;4978705;28;20035;-77
2023/08/24 06:19:56;;;;;;;0.03;0.00;;;22.90;79.10;;;;;;4979633;28;20037;-76
2023/08/24 06:22:21;;;;;;;0.00;0.00;;;23.00;79.20;;;;;;4979442;28;20037;-77
2023/08/24 06:24:47;;;;;;;0.00;0.00;;;23.00;79.50;;;;;;4986342;28;20029;-77
2023/08/24 06:27:12;;;;;;;0.00;0.00;;;23.00;79.40;;;;;;4999027;28;20504;-75
2023/08/24 06:29:43;;;;;;;0.00;0.00;;;23.00;79.80;;;;;;4998833;28;20030;-76
2023/08/24 06:32:08;;;;;;;0.00;0.00;;;23.00;79.80;;;;;;4998402;28;20052;-75
2023/08/24 06:34:34;;;;;;;0.00;0.00;;;23.00;79.70;;;;;;4998610;28;20022;-75
2023/08/24 06:37:03;;;;;;;0.00;0.00;;;23.00;79.90;;;;;;4998816;28;20124;-78
2023/08/24 06:39:28;;;;;;;0.00;0.00;;;23.00;79.60;;;;;;4999000;28;20033;-77
2023/08/24 06:41:54;;;;;;;0.00;0.00;;;23.00;79.50;;;;;;5012880;28;20026;-75
2023/08/24 06:44:19;;;;;;;0.00;0.00;;;23.10;79.50;;;;;;5018215;28;20026;-76
2023/08/24 06:46:46;;;;;;;0.00;0.00;;;23.10;79.50;;;;;;5018077;28;20041;-74
2023/08/24 06:49:12;;;;;;;0.00;0.00;;;23.10;79.60;;;;;;4999680;28;20507;-75
2023/08/24 06:51:38;;;;;;;0.00;0.00;;;23.10;79.50;;;;;;4981586;28;20050;-76
2023/08/24 06:54:04;;;;;;;0.00;0.00;;;23.10;79.70;;;;;;4995503;28;20057;-75
2023/08/24 06:56:30;;;;;;;0.00;0.00;;;23.20;79.60;;;;;;4994912;28;20030;-75
2023/08/24 06:58:55;;;;;;;0.00;0.00;;;23.20;79.60;;;;;;4978913;28;20023;-76
2023/08/24 07:01:21;;;;;;;0.00;0.00;;;23.20;79.60;;;;;;4978547;28;20034;-76
2023/08/24 07:03:47;;;;;;;0.00;0.00;;;23.00;79.50;;;;;;4991060;28;20030;-79
2023/08/24 07:06:13;;;;;;;0.00;0.00;;;23.00;79.50;;;;;;4996908;28;20030;-76
2023/08/24 07:08:39;;;;;;;0.00;0.00;;;23.10;79.50;;;;;;4997958;28;20105;-75
2023/08/24 07:11:07;;;;;;;0.00;0.00;;;23.00;79.70;;;;;;4997637;28;20385;-79
2023/08/24 07:13:33;;;;;;;0.00;0.00;;;23.00;80.20;;;;;;4998180;28;20028;-77
2023/08/24 07:15:58;;;;;;;0.00;0.00;;;23.00;80.00;;;;;;4996974;28;20089;-75
2023/08/24 07:18:24;;;;;;;0.00;0.00;;;23.00;79.90;;;;;;4996770;28;20432;-77
2023/08/24 07:20:50;;;;;;;0.00;0.00;;;23.00;79.90;;;;;;4998033;28;20034;-76
2023/08/24 07:23:15;;;;;;;0.00;0.00;;;23.00;80.00;;;;;;4985650;28;20077;-74
2023/08/24 07:25:41;;;;;;;0.00;0.00;;;23.00;79.90;;;;;;4991569;28;20073;-77
2023/08/24 07:28:08;;;;;;;0.00;0.00;;;23.00;80.10;;;;;;4996485;28;20188;-77
2023/08/24 07:30:35;;;;;;;0.00;0.00;;;22.90;80.30;;;;;;4997531;28;20058;-79
2023/08/24 07:33:05;;;;;;;0.00;0.00;;;22.90;80.20;;;;;;4994921;28;20027;-78
2023/08/24 07:35:30;;;;;;;0.00;0.00;;;23.00;80.20;;;;;;4997870;28;20035;-77
2023/08/24 07:37:56;;;;;;;0.00;0.00;;;23.00;80.10;;;;;;4997832;28;20058;-77
2023/08/24 07:40:22;;;;;;;0.00;0.00;;;23.00;80.40;;;;;;4986170;28;20101;-76
2023/08/24 07:42:52;;;;;;;0.10;0.05;;;22.90;80.50;;;;;;4969105;28;20035;-76
2023/08/24 07:45:19;;;;;;;0.00;0.00;;;23.00;80.30;;;;;;4981379;28;20027;-76
2023/08/24 07:47:44;;;;;;;0.00;0.00;;;23.00;80.30;;;;;;4979224;28;20230;-76
2023/08/24 07:50:11;;;;;;;0.00;0.00;;;23.00;80.60;;;;;;4995241;28;20109;-76
2023/08/24 07:52:40;;;;;;;0.00;0.00;;;23.10;80.50;;;;;;4979843;28;20034;-76
2023/08/24 07:55:07;;;;;;;0.00;0.00;;;23.10;80.70;;;;;;4986044;28;20034;-76
2023/08/24 07:57:36;;;;;;;0.00;0.00;;;23.10;80.60;;;;;;4984428;28;20047;-76
2023/08/24 08:00:05;;;;;;;0.00;0.00;;;23.00;80.90;;;;;;4987504;28;20026;-76
2023/08/24 08:02:32;;;;;;;0.00;0.00;;;23.00;80.70;;;;;;4986140;28;20022;-79
2023/08/24 08:04:58;;;;;;;0.00;0.00;;;23.00;80.80;;;;;;4982684;28;20027;-80
2023/08/24 08:07:25;;;;;;;0.00;0.00;;;23.10;80.80;;;;;;5000353;28;20034;-80
2023/08/24 08:09:51;;;;;;;0.00;0.00;;;23.00;80.70;;;;;;4988264;28;20030;-80
2023/08/24 08:12:17;;;;;;;0.00;0.00;;;23.00;80.90;;;;;;4975059;28;20041;-79
2023/08/24 08:14:42;;;;;;;0.00;0.00;;;23.00;81.00;;;;;;4983714;28;20034;-80
2023/08/24 08:17:08;;;;;;;0.00;0.00;;;23.00;81.00;;;;;;4975541;28;20058;-79
2023/08/24 08:19:35;;;;;;;0.10;0.10;;;23.00;81.20;;;;;;4985796;28;20042;-79
2023/08/24 08:22:01;;;;;;;0.00;0.00;;;22.90;81.50;;;;;;4979835;28;20090;-80
2023/08/24 08:24:27;;;;;;;0.00;0.00;;;23.00;81.70;;;;;;4984676;28;20125;-79
2023/08/24 08:26:53;;;;;;;0.10;0.10;;;23.00;81.60;;;;;;4966245;28;20577;-79
2023/08/24 08:29:18;;;;;;;0.00;0.00;;;23.00;81.90;;;;;;4974354;28;20146;-80
2023/08/24 08:31:44;;;;;;;0.03;0.03;;;23.00;82.00;;;;;;4975432;28;20069;-80
2023/08/24 08:34:09;;;;;;;0.00;0.00;;;23.00;82.30;;;;;;4979518;28;20035;-80
2023/08/24 08:36:35;;;;;;;0.00;0.00;;;23.00;82.30;;;;;;4968169;28;20030;-80
2023/08/24 08:39:01;;;;;;;0.00;0.00;;;23.10;81.90;;;;;;4975588;28;20031;-80
2023/08/24 08:41:32;;;;;;;0.00;0.00;;;23.20;81.50;;;;;;4977913;28;20037;-82
2023/08/24 08:44:00;;;;;;;0.10;0.00;;;23.30;81.20;;;;;;4977399;28;20031;-80
2023/08/24 08:46:27;;;;;;;0.00;0.00;;;23.50;81.00;;;;;;4991694;28;20555;-77
2023/08/24 08:48:53;;;;;;;0.00;0.00;;;23.40;80.60;;;;;;4979921;28;20497;-79
2023/08/24 08:51:20;;;;;;;0.00;0.00;;;23.40;80.50;;;;;;4978961;28;20027;-78
2023/08/24 08:53:45;;;;;;;0.00;0.00;;;23.40;80.60;;;;;;4987399;28;20050;-78
2023/08/24 08:56:11;;;;;;;0.13;0.00;;;23.50;80.50;;;;;;4983612;28;20065;-78
2023/08/24 08:58:37;;;;;;;0.00;0.00;;;23.60;80.30;;;;;;4979058;28;20031;-78
2023/08/24 09:01:04;;;;;;;0.00;0.00;;;23.80;80.10;;;;;;4976199;28;20038;-80
2023/08/24 09:03:32;;;;;;;0.00;0.00;;;23.80;79.90;;;;;;4985229;28;20027;-79
2023/08/24 09:05:58;;;;;;;0.00;0.00;;;24.00;79.70;;;;;;4978121;28;20050;-79
2023/08/24 09:08:27;;;;;;;0.00;0.00;;;24.10;79.60;;;;;;4982051;28;20035;-79
2023/08/24 09:10:54;;;;;;;0.00;0.00;;;24.20;79.10;;;;;;4975954;28;20027;-80
2023/08/24 09:13:21;;;;;;;0.00;0.00;;;24.30;78.70;;;;;;4977888;28;20520;-79
2023/08/24 09:15:46;;;;;;;0.00;0.00;;;24.30;78.90;;;;;;4976284;28;20053;-80
2023/08/24 09:18:12;;;;;;;0.00;0.00;;;24.20;78.50;;;;;;4976631;28;20583;-80
2023/08/24 09:20:37;;;;;;;0.00;0.00;;;24.20;78.60;;;;;;4989606;28;20037;-79
2023/08/24 09:23:03;;;;;;;0.00;0.00;;;24.20;78.70;;;;;;4976616;28;20031;-80
2023/08/24 09:25:29;;;;;;;0.10;0.10;;;24.10;78.90;;;;;;4982769;28;20670;-79
2023/08/24 09:27:59;;;;;;;0.00;0.00;;;24.10;79.20;;;;;;4977874;28;20027;-80
2023/08/24 09:30:37;;;;;;;0.00;0.00;;;23.90;79.70;;;;;;4995074;28;20492;-80
2023/08/24 09:33:13;;;;;;;0.00;0.00;;;23.80;80.20;;;;;;4983095;28;20029;-80
2023/08/24 09:35:39;;;;;;;0.00;0.00;;;23.80;81.00;;;;;;4976358;28;20871;-80
2023/08/24 09:38:18;;;;;;;0.00;0.00;;;23.70;81.50;;;;;;4991320;28;20030;-79
2023/08/24 09:40:48;;;;;;;0.00;0.00;;;23.60;81.70;;;;;;4976022;28;20027;-80
2023/08/24 09:43:14;;;;;;;0.00;0.00;;;23.60;81.80;;;;;;4988344;28;20066;-79
2023/08/24 09:46:00;;;;;;;0.00;0.00;;;23.50;82.20;;;;;;4987324;28;20062;-77
2023/08/24 09:48:25;;;;;;;0.00;0.00;;;23.50;82.30;;;;;;4976410;28;20077;-76
2023/08/24 09:50:52;;;;;;;0.00;0.00;;;23.50;82.50;;;;;;4988073;28;20107;-76
2023/08/24 09:53:22;;;;;;;0.00;0.00;;;23.40;83.00;;;;;;4980393;28;20045;-76
2023/08/24 09:56:00;;;;;;;0.00;0.00;;;23.30;84.00;;;;;;4978318;28;20030;-76
2023/08/24 09:58:26;;;;;;;0.00;0.00;;;23.30;83.80;;;;;;4981632;28;20027;-76
2023/08/24 10:00:52;;;;;;;0.00;0.00;;;23.30;84.00;;;;;;4975458;28;20397;-76
2023/08/24 10:03:25;;;;;;;0.00;0.00;;;23.20;84.10;;;;;;4982866;28;20033;-75
2023/08/24 10:06:02;;;;;;;0.00;0.00;;;23.30;84.20;;;;;;4980462;28;20066;-75
2023/08/24 10:08:34;;;;;;;0.00;0.00;;;23.30;84.00;;;;;;4976077;28;20174;-75
2023/08/24 10:11:00;;;;;;;0.00;0.00;;;23.30;83.80;;;;;;4986612;28;20528;-75
2023/08/24 10:13:40;;;;;;;0.00;0.00;;;23.40;83.80;;;;;;4982582;28;20038;-76
2023/08/24 10:16:08;;;;;;;0.10;0.08;;;23.50;83.70;;;;;;4975564;28;20480;-76
2023/08/24 10:18:34;;;;;;;0.00;0.00;;;23.60;83.50;;;;;;4979123;28;20471;-75
2023/08/24 10:21:01;;;;;;;0.00;0.00;;;23.60;83.60;;;;;;4975784;28;20070;-76
2023/08/24 10:23:29;;;;;;;0.00;0.00;;;23.70;83.30;;;;;;4974886;28;20030;-75
2023/08/24 10:25:55;;;;;;;0.00;0.00;;;23.80;83.20;;;;;;4984615;28;20077;-76
2023/08/24 10:28:25;;;;;;;0.13;0.00;;;23.80;82.90;;;;;;4975484;28;20041;-75
2023/08/24 10:30:52;;;;;;;0.00;0.00;;;23.80;82.80;;;;;;4989348;28;20111;-76
2023/08/24 10:33:19;;;;;;;0.00;0.00;;;23.90;82.80;;;;;;4980801;28;20030;-75
2023/08/24 10:35:46;;;;;;;0.00;0.00;;;23.80;82.70;;;;;;4990100;28;20031;-76
2023/08/24 10:38:28;;;;;;;0.10;0.08;;;23.90;82.60;;;;;;4974713;28;20053;-75
2023/08/24 10:41:01;;;;;;;0.05;0.05;;;23.80;82.30;;;;;;4974849;28;20548;-75
2023/08/24 10:43:27;;;;;;;0.00;0.00;;;24.00;82.50;;;;;;4975195;28;20030;-75
2023/08/24 10:45:57;;;;;;;0.00;0.00;;;24.00;82.30;;;;;;4976208;28;20062;-75
2023/08/24 10:48:46;;;;;;;0.00;0.00;;;24.10;82.20;;;;;;4974732;28;20117;-75
2023/08/24 10:51:16;;;;;;;0.00;0.00;;;24.20;82.10;;;;;;4974343;28;20062;-75
2023/08/24 10:53:44;;;;;;;0.00;0.00;;;24.20;81.90;;;;;;4985389;28;20539;-76
2023/08/24 10:56:15;;;;;;;0.00;0.00;;;24.30;81.70;;;;;;4974641;28;20031;-75
2023/08/24 10:58:45;;;;;;;0.00;0.00;;;24.40;81.60;;;;;;4983136;28;20054;-75
2023/08/24 11:01:17;;;;;;;0.00;0.00;;;24.50;81.10;;;;;;4975220;28;20043;-75
2023/08/24 11:03:50;;;;;;;0.03;0.00;;;24.70;80.90;;;;;;4982529;28;20022;-75
2023/08/24 11:06:21;;;;;;;;;;;24.80;80.40;;;;;;4989509;28;20076;-76
2023/08/24 11:08:48;;;;;;;0.10;0.10;;;25.00;80.00;;;;;;4999578;28;19913;-75
2023/08/24 11:11:24;;;;;;;0.00;0.00;;;25.20;79.50;;;;;;4991849;28;20057;-79
2023/08/24 11:14:26;;;;;;;0.10;0.10;;;25.40;78.70;;;;;;4975044;28;20050;-78
2023/08/24 11:16:52;;;;;;;0.00;0.00;;;25.60;77.60;;;;;;4981869;28;20029;-76
2023/08/24 11:19:18;;;;;;;0.00;0.00;;;25.80;77.40;;;;;;4984141;28;20054;-77
2023/08/24 11:21:45;;;;;;;0.10;0.10;;;26.00;77.00;;;;;;4984345;28;20508;-77
2023/08/24 11:24:15;;;;;;;0.00;0.00;;;26.30;75.80;;;;;;4982657;28;20060;-77
2023/08/24 11:26:45;;;;;;;0.00;0.00;;;26.40;75.50;;;;;;4981695;28;20025;-77
2023/08/24 11:29:11;;;;;;;0.03;0.03;;;26.30;74.40;;;;;;4981707;28;20085;-76
2023/08/24 11:31:38;;;;;;;0.00;0.00;;;26.30;74.30;;;;;;4983677;28;20515;-77
2023/08/24 11:34:04;;;;;;;0.00;0.00;;;26.50;73.90;;;;;;4985116;28;20483;-77
2023/08/24 11:36:31;;;;;;;0.00;0.00;;;26.60;72.30;;;;;;4982412;28;20026;-77
2023/08/24 11:39:00;;;;;;;0.08;0.08;;;26.60;73.50;;;;;;4984141;28;20026;-77
2023/08/24 11:41:26;;;;;;;0.00;0.00;;;26.70;73.30;;;;;;4983102;28;20109;-76
2023/08/24 11:44:00;;;;;;;0.00;0.00;;;26.80;72.60;;;;;;4984448;28;20047;-77
2023/08/24 11:46:27;;;;;;;0.00;0.00;;;26.80;72.80;;;;;;4981855;28;20026;-76
2023/08/24 11:48:53;;;;;;;0.10;0.10;;;26.70;72.80;;;;;;4982444;28;20444;-76
2023/08/24 11:51:18;;;;;;;0.00;0.00;;;26.80;73.50;;;;;;4982569;28;20034;-77
2023/08/24 11:53:46;;;;;;;0.00;0.00;;;26.80;71.90;;;;;;4979265;28;20023;-76
2023/08/24 11:56:13;;;;;;;0.00;0.00;;;26.90;71.70;;;;;;4980643;28;20019;-76
2023/08/24 11:58:43;;;;;;;0.00;0.00;;;27.10;71.30;;;;;;4979494;28;20031;-76
2023/08/24 12:01:11;;;;;;;0.10;0.10;;;27.10;70.60;;;;;;4984543;28;20030;-76
2023/08/24 12:03:38;;;;;;;0.10;0.10;;;27.30;70.80;;;;;;4981172;28;20085;-76
2023/08/24 12:06:15;;;;;;;0.00;0.00;;;27.50;70.20;;;;;;4973569;28;20481;-76
2023/08/24 12:08:42;;;;;;;0.00;0.00;;;27.50;69.60;;;;;;4972885;28;20034;-76
2023/08/24 12:11:15;;;;;;;0.00;0.00;;;27.60;67.40;;;;;;4974235;28;20034;-78
2023/08/24 12:13:48;;;;;;;0.00;0.00;;;27.70;68.50;;;;;;4976706;28;20035;-77
2023/08/24 12:16:16;;;;;;;0.00;0.00;;;27.80;68.60;;;;;;4983997;28;20418;-77
2023/08/24 12:18:53;;;;;;;0.00;0.00;;;27.80;67.40;;;;;;4989223;28;20774;-76
2023/08/24 12:21:19;;;;;;;0.10;0.10;;;27.90;69.60;;;;;;4983829;28;20382;-76
2023/08/24 12:23:58;;;;;;;0.00;0.00;;;27.90;68.70;;;;;;4982572;28;20404;-76
2023/08/24 12:26:25;;;;;;;0.00;0.00;;;27.90;65.60;;;;;;4987930;28;20041;-76
2023/08/24 12:28:54;;;;;;;0.08;0.08;;;27.90;65.10;;;;;;4972032;28;20043;-76
2023/08/24 12:31:20;;;;;;;0.10;0.10;;;27.90;66.60;;;;;;4971504;28;20062;-76
2023/08/24 12:33:58;;;;;;;0.00;0.00;;;27.90;65.20;;;;;;4984659;28;20031;-76
2023/08/24 12:36:23;;;;;;;0.00;0.00;;;28.00;66.10;;;;;;4975548;28;20023;-76
2023/08/24 12:38:49;;;;;;;0.00;0.00;;;28.20;66.20;;;;;;4991396;28;20523;-76
2023/08/24 12:41:15;;;;;;;0.00;0.00;;;28.30;66.70;;;;;;4991594;28;20034;-76
2023/08/24 12:43:40;;;;;;;0.00;0.00;;;28.30;65.50;;;;;;4987311;28;20035;-76
2023/08/24 12:46:06;;;;;;;0.00;0.00;;;28.40;67.00;;;;;;4979227;28;20461;-76
2023/08/24 12:48:31;;;;;;;0.00;0.00;;;28.40;65.20;;;;;;4979506;28;20116;-76
2023/08/24 12:50:57;;;;;;;0.00;0.00;;;28.50;64.20;;;;;;4999778;28;20587;-77
2023/08/24 12:53:23;;;;;;;0.00;0.00;;;28.50;64.90;;;;;;4989729;28;20033;-77
2023/08/24 12:55:48;;;;;;;0.00;0.00;;;28.60;64.70;;;;;;4987116;28;20112;-76
2023/08/24 12:58:14;;;;;;;0.00;0.00;;;28.60;63.80;;;;;;4985740;28;20030;-76
2023/08/24 13:00:40;;;;;;;0.00;0.00;;;28.60;63.90;;;;;;4990171;28;20034;-76
2023/08/24 13:03:05;;;;;;;0.05;0.05;;;28.70;63.20;;;;;;5005659;28;20042;-77
2023/08/24 13:05:31;;;;;;;0.00;0.00;;;28.70;64.30;;;;;;4979868;28;21520;-76
2023/08/24 13:07:57;;;;;;;0.00;0.00;;;28.80;63.00;;;;;;4984307;28;20049;-77
2023/08/24 13:10:25;;;;;;;0.00;0.00;;;28.90;63.50;;;;;;4980951;28;20085;-77
2023/08/24 13:12:50;;;;;;;0.00;0.00;;;28.90;63.00;;;;;;4975655;28;20062;-76
2023/08/24 13:15:16;;;;;;;0.00;0.00;;;29.00;63.50;;;;;;4993403;28;20038;-76
2023/08/24 13:17:41;;;;;;;0.03;0.03;;;29.00;63.20;;;;;;5002863;28;20026;-76
2023/08/24 13:20:07;;;;;;;0.10;0.10;;;29.10;62.80;;;;;;4987192;28;20455;-76
2023/08/24 13:22:33;;;;;;;0.10;0.10;;;29.10;61.40;;;;;;4990473;28;20638;-76
2023/08/24 13:24:59;;;;;;;0.00;0.00;;;29.10;60.90;;;;;;4986712;28;20027;-76
2023/08/24 13:27:25;;;;;;;0.00;0.00;;;29.30;61.00;;;;;;4976003;28;20035;-76
2023/08/24 13:29:50;;;;;;;0.00;0.00;;;29.30;62.10;;;;;;4979307;28;20038;-77
2023/08/24 13:32:16;;;;;;;0.00;0.00;;;29.40;61.00;;;;;;4966716;28;20110;-76
2023/08/24 13:34:42;;;;;;;0.00;0.00;;;29.40;61.10;;;;;;4976468;28;20026;-74
2023/08/24 13:37:07;;;;;;;0.05;0.05;;;29.40;59.90;;;;;;4981215;28;20041;-75
2023/08/24 13:39:33;;;;;;;0.00;0.00;;;29.40;58.30;;;;;;4979207;28;20050;-76
2023/08/24 13:42:02;;;;;;;0.00;0.00;;;29.50;58.90;;;;;;4984010;28;20410;-77
2023/08/24 13:44:27;;;;;;;0.00;0.00;;;29.50;60.00;;;;;;4976926;28;20122;-77
2023/08/24 13:46:53;;;;;;;0.00;0.00;;;29.70;60.30;;;;;;4987183;28;20202;-78
2023/08/24 13:49:20;;;;;;;0.00;0.00;;;29.70;59.50;;;;;;4975380;28;20052;-87
2023/08/24 13:51:46;;;;;;;0.00;0.00;;;29.80;58.70;;;;;;4975341;28;20031;-78
2023/08/24 13:54:16;;;;;;;0.05;0.05;;;29.80;58.80;;;;;;4977314;28;20019;-76
2023/08/24 13:56:42;;;;;;;0.00;0.00;;;29.80;58.30;;;;;;4997492;28;20065;-75
2023/08/24 13:59:08;;;;;;;0.00;0.00;;;29.90;58.10;;;;;;4979173;28;20425;-76
2023/08/24 14:01:34;;;;;;;0.10;0.10;;;30.00;57.30;;;;;;4975150;28;20077;-76
2023/08/24 14:03:59;;;;;;;0.10;0.10;;;30.00;57.10;;;;;;4982001;28;20765;-76
2023/08/24 14:06:28;;;;;;;0.00;0.00;;;30.10;56.20;;;;;;4994251;28;20477;-76
2023/08/24 14:08:54;;;;;;;0.00;0.00;;;30.00;56.20;;;;;;4977957;28;20960;-75
2023/08/24 14:11:20;;;;;;;0.00;0.00;;;30.00;55.40;;;;;;4993747;28;20034;-75
2023/08/24 14:13:45;;;;;;;0.00;0.00;;;30.00;55.70;;;;;;4975813;28;20022;-77
2023/08/24 14:16:11;;;;;;;0.00;0.00;;;30.10;55.20;;;;;;4992876;28;20034;-77
2023/08/24 14:18:37;;;;;;;0.00;0.00;;;30.20;55.20;;;;;;4977381;28;20042;-76
2023/08/24 14:21:03;;;;;;;0.00;0.00;;;30.20;55.60;;;;;;4989400;28;20064;-75
2023/08/24 14:23:29;;;;;;;0.00;0.00;;;30.20;56.90;;;;;;4981034;28;20026;-77
2023/08/24 14:25:54;;;;;;;0.05;0.05;;;30.20;56.00;;;;;;4987476;28;20034;-76
2023/08/24 14:28:22;;;;;;;0.00;0.00;;;30.20;57.40;;;;;;4981804;28;20038;-76
2023/08/24 14:30:51;;;;;;;0.00;0.00;;;30.20;57.60;;;;;;4983689;28;20125;-75
2023/08/24 14:33:17;;;;;;;0.00;0.00;;;30.30;57.40;;;;;;4993105;28;20031;-75
2023/08/24 14:35:53;;;;;;;0.00;0.00;;;30.30;57.50;;;;;;5013660;28;20041;-75
2023/08/24 14:38:19;;;;;;;0.10;0.08;;;30.30;56.70;;;;;;4981318;28;20042;-75
2023/08/24 14:40:45;;;;;;;0.05;0.05;;;30.30;58.20;;;;;;4969790;28;20609;-79
2023/08/24 14:43:11;;;;;;;0.00;0.00;;;30.30;57.40;;;;;;4985568;28;20040;-78
2023/08/24 14:45:37;;;;;;;0.00;0.00;;;30.30;57.60;;;;;;4984896;28;20098;-76
2023/08/24 14:48:03;;;;;;;0.00;0.00;;;30.30;57.00;;;;;;4974262;28;20089;-76
2023/08/24 14:50:28;;;;;;;0.00;0.00;;;30.40;58.30;;;;;;4973820;28;20035;-78
2023/08/24 14:52:54;;;;;;;0.00;0.00;;;30.40;56.70;;;;;;4979258;28;20033;-75
2023/08/24 14:55:20;;;;;;;0.00;0.00;;;30.40;56.30;;;;;;4984222;28;20027;-77
2023/08/24 14:57:45;;;;;;;0.00;0.00;;;30.30;55.80;;;;;;4974277;28;20030;-76
2023/08/24 15:00:11;;;;;;;0.00;0.00;;;30.30;55.30;;;;;;4975939;28;20046;-75
2023/08/24 15:02:37;;;;;;;0.00;0.00;;;30.30;55.50;;;;;;4990442;28;20626;-76
2023/08/24 15:05:04;;;;;;;0.00;0.00;;;30.30;55.40;;;;;;4986279;28;20062;-78
2023/08/24 15:07:31;;;;;;;0.00;0.00;;;30.30;54.30;;;;;;4978137;28;20030;-79
2023/08/24 15:09:56;;;;;;;0.00;0.00;;;30.40;54.20;;;;;;4983431;28;20039;-79
2023/08/24 15:12:22;;;;;;;0.00;0.00;;;30.40;55.00;;;;;;4976707;28;20023;-82
2023/08/24 15:15:02;;;;;;;0.00;0.00;;;30.40;53.20;;;;;;4954740;28;20038;-76
2023/08/24 15:17:30;;;;;;;0.00;0.00;;;30.30;52.70;;;;;;4987419;28;20476;-75
2023/08/24 15:19:59;;;;;;;0.10;0.10;;;30.40;53.70;;;;;;4989793;28;20058;-76
2023/08/24 15:22:29;;;;;;;0.05;0.03;;;30.40;53.90;;;;;;4974063;28;20046;-76
2023/08/24 15:24:55;;;;;;;0.00;0.00;;;30.40;53.80;;;;;;4977163;28;20093;-76
2023/08/24 15:27:21;;;;;;;0.00;0.00;;;30.40;52.90;;;;;;4989664;28;20019;-75
2023/08/24 15:29:47;;;;;;;0.10;0.00;;;30.40;52.70;;;;;;4969801;28;20521;-76
2023/08/24 15:32:12;;;;;;;0.00;0.00;;;30.40;52.80;;;;;;4979206;28;20165;-76
2023/08/24 15:34:39;;;;;;;0.00;0.00;;;30.40;52.30;;;;;;4977075;28;20038;-76
2023/08/24 15:37:05;;;;;;;0.00;0.00;;;30.40;53.00;;;;;;4974054;28;20094;-76
2023/08/24 15:39:37;;;;;;;0.00;0.00;;;30.40;52.80;;;;;;4972832;28;20536;-75
2023/08/24 15:42:04;;;;;;;0.00;0.00;;;30.40;52.70;;;;;;4981123;28;20054;-78
2023/08/24 15:44:30;;;;;;;0.00;0.00;;;30.40;52.60;;;;;;4973086;28;20035;-76
2023/08/24 15:46:56;;;;;;;0.00;0.00;;;30.40;53.00;;;;;;4981564;28;20035;-76
2023/08/24 15:49:22;;;;;;;0.10;0.00;;;30.30;53.00;;;;;;4978052;28;20027;-75
2023/08/24 15:51:49;;;;;;;0.00;0.00;;;30.30;53.60;;;;;;4981529;28;20097;-75
2023/08/24 15:54:14;;;;;;;0.00;0.00;;;30.30;53.50;;;;;;4992070;28;20022;-75
2023/08/24 15:56:44;;;;;;;0.00;0.00;;;30.30;53.60;;;;;;4982146;28;20033;-75
2023/08/24 15:59:10;;;;;;;0.08;0.08;;;30.40;54.20;;;;;;4995832;28;20026;-75
2023/08/24 16:01:36;;;;;;;0.00;0.00;;;30.30;59.20;;;;;;4992765;28;20536;-75
2023/08/24 16:04:02;;;;;;;0.00;0.00;;;30.10;60.60;;;;;;4984891;28;20064;-75
2023/08/24 16:06:28;;;;;;;0.00;0.00;;;30.00;61.60;;;;;;5009813;28;20034;-75
2023/08/24 16:08:53;;;;;;;0.00;0.00;;;29.80;62.60;;;;;;4995969;28;20038;-75
2023/08/24 16:11:21;;;;;;;0.00;0.00;;;29.80;62.70;;;;;;4997339;28;20073;-75
2023/08/24 16:13:47;;;;;;;0.10;0.10;;;29.70;62.60;;;;;;4983997;28;20077;-75
2023/08/24 16:16:13;;;;;;;0.00;0.00;;;29.40;62.50;;;;;;4987429;28;20038;-75
2023/08/24 16:18:38;;;;;;;0.00;0.00;;;29.30;62.90;;;;;;4986136;28;20031;-75
2023/08/24 16:21:04;;;;;;;0.00;0.00;;;29.20;63.20;;;;;;4977471;28;20037;-74
2023/08/24 16:23:30;;;;;;;0.00;0.00;;;29.10;63.60;;;;;;4977146;28;20370;-75
2023/08/24 16:25:55;;;;;;;0.03;0.03;;;28.90;63.40;;;;;;4993860;28;20070;-75
2023/08/24 16:28:21;;;;;;;0.00;0.00;;;28.80;63.90;;;;;;4988993;28;20041;-75
2023/08/24 16:30:48;;;;;;;0.00;0.00;;;28.80;63.80;;;;;;4977934;28;20061;-74
2023/08/24 16:33:14;;;;;;;0.00;0.00;;;28.80;64.00;;;;;;4978196;28;20153;-75
2023/08/24 16:35:40;;;;;;;0.00;0.00;;;28.70;63.80;;;;;;4976345;28;20113;-75
2023/08/24 16:38:06;;;;;;;0.00;0.00;;;28.70;63.90;;;;;;4977051;28;20078;-75
2023/08/24 16:40:35;;;;;;;0.00;0.00;;;28.70;64.00;;;;;;4985879;28;20048;-75
2023/08/24 16:43:01;;;;;;;0.00;0.00;;;28.60;64.10;;;;;;4994790;28;20069;-74
2023/08/24 16:45:27;;;;;;;0.00;0.00;;;28.60;64.30;;;;;;4996023;28;20043;-74
2023/08/24 16:47:52;;;;;;;0.00;0.00;;;28.60;64.50;;;;;;4992095;28;20049;-74
2023/08/24 16:50:22;;;;;;;0.00;0.00;;;28.60;64.10;;;;;;4984199;28;20038;-74
2023/08/24 16:52:48;;;;;;;0.00;0.00;;;28.50;64.10;;;;;;4995811;28;20065;-75
2023/08/24 16:55:13;;;;;;;0.00;0.00;;;28.50;64.30;;;;;;4996566;28;20113;-75
2023/08/24 16:57:39;;;;;;;0.00;0.00;;;28.40;64.40;;;;;;4983063;28;20027;-74
2023/08/24 17:00:08;;;;;;;0.00;0.00;;;28.30;64.80;;;;;;4996130;28;20484;-75
2023/08/24 17:02:34;;;;;;;0.00;0.00;;;28.30;64.80;;;;;;4993721;28;20026;-75
2023/08/24 17:05:02;;;;;;;0.00;0.00;;;28.30;64.90;;;;;;4976906;28;20066;-75
2023/08/24 17:07:30;;;;;;;0.00;0.00;;;28.30;65.40;;;;;;4984739;28;20026;-74
2023/08/24 17:09:56;;;;;;;0.00;0.00;;;28.10;65.00;;;;;;4984932;28;20046;-74
2023/08/24 17:12:22;;;;;;;0.00;0.00;;;28.00;65.20;;;;;;4986921;28;20029;-74
2023/08/24 17:14:48;;;;;;;0.00;0.00;;;27.90;65.30;;;;;;4986690;28;20027;-75
2023/08/24 17:17:13;;;;;;;0.00;0.00;;;27.90;65.70;;;;;;4984946;28;20113;-75